메인 페이지
METAR-TAF:

METAR-TAF

공항 :

케언스 공항

케언스, 오스트레일리아

위도: 16-53S, 경도: 145-45E, 고도: 3m

현재 날씨관측

예보는 32분 전, 17:00시(UTC)에 발표되었습니다.
남동5kt
온도 24°C
습도 83%
기압 1012 hPa
시정 10km 이상
고도 2300ft 상공 구름 많음

METAR: YBCS 171700Z 14005KT 9999 BKN023 24/21 Q1012

시각: 03:32 (17:32 UTC)

예보

예보는 6 시간 16분 전, 11:16시(UTC)에 발표되었습니다.
예보 대상 시간: 17일 12시부터 18일 12시까지 (UTC)
여러 방향의 바람 5kt
시정 10km 이상
고도 2000ft 상공 구름 보통
고도 3500ft 상공 구름 보통
18일 0000시부터 (UTC)
북동11kt
시정 10km 이상
고도 2500ft 상공 구름 보통
18일 0800시부터 (UTC)
여러 방향의 바람 5kt
시정 10km 이상
고도 2000ft 상공 구름 보통
고도 3500ft 상공 구름 보통

TAF: YBCS 171116Z 1712/1812 VRB05KT 9999 SCT020 SCT035 FM180000 05011KT 9999 SCT025 FM180800 VRB05KT 9999 SCT020 SCT035

4,000개 이상의 공항 관측 자료 및 예보 (METAR 및 TAF 보고).

지도상에서 검색 가능한 기상관측소가 노란 점과 빨간 점으로 표시되어 있습니다.

기상관측소 명을 보려면 표시 위로 마우스를 이동하세요.

날씨 관측과 예보를 보려면 클릭하세요.

지도 변경 : 확대하려면 엑스 표시가 있는 녹색 버튼, 축소하려면 빼기 표시가 있는 녹색 버튼, 다음 페이지의 지도를 보려면 녹색 화살표를 클릭하세요.


METAR-TAF: